Time;durP1;ratioP1;P1;durP2;ratioP2;P2;SDS_P1;SDS_P2;PMS_P1;PMS_P2;Temp;Humidity;BMP_temperature;BMP_pressure;BME280_temperature;BME280_humidity;BME280_pressure;Samples;Min_cycle;Max_cycle;Signal;HPM_P1;HPM_P2
2022/11/10 00:01:58;;;;;;;0.70;0.70;;;7.50;99.90;;;;;;5095579;28;20248;-76
2022/11/10 00:04:27;;;;;;;0.60;0.60;;;7.50;99.90;;;;;;5096848;28;20286;-78
2022/11/10 00:06:53;;;;;;;0.50;0.50;;;7.50;99.90;;;;;;5095029;28;20202;-77
2022/11/10 00:09:20;;;;;;;0.50;0.50;;;7.50;99.90;;;;;;5096506;28;20207;-77
2022/11/10 00:11:46;;;;;;;0.70;0.70;;;7.50;99.90;;;;;;5097175;28;20677;-77
2022/11/10 00:17:00;;;;;;;0.60;0.60;;;7.70;99.90;;;;;;5115683;28;20301;-77
2022/11/10 00:19:40;;;;;;;0.43;0.43;;;7.70;99.90;;;;;;5096392;28;20665;-77
2022/11/10 00:22:10;;;;;;;0.50;0.50;;;7.70;99.90;;;;;;5115402;28;20661;-76
2022/11/10 00:24:37;;;;;;;0.50;0.50;;;7.70;99.90;;;;;;5092735;28;20194;-76
2022/11/10 00:27:04;;;;;;;0.60;0.60;;;7.70;99.90;;;;;;5094705;28;20706;-77
2022/11/10 00:29:31;;;;;;;0.60;0.60;;;7.70;99.90;;;;;;5076382;28;20548;-77
2022/11/10 00:32:01;;;;;;;0.43;0.43;;;7.70;99.90;;;;;;5060033;28;20200;-77
2022/11/10 00:34:28;;;;;;;1.58;0.82;;;7.70;99.90;;;;;;5076465;28;20550;-77
2022/11/10 00:36:58;;;;;;;0.40;0.40;;;7.60;99.90;;;;;;5090346;28;20246;-77
2022/11/10 00:39:25;;;;;;;0.50;0.50;;;7.60;99.90;;;;;;5100569;28;20267;-77
2022/11/10 00:41:51;;;;;;;1.77;1.02;;;7.50;99.90;;;;;;5100405;28;20211;-76
2022/11/10 00:44:20;;;;;;;0.55;0.55;;;7.50;99.90;;;;;;5083809;28;20203;-77
2022/11/10 00:46:47;;;;;;;0.57;0.57;;;7.50;99.90;;;;;;5100200;28;20206;-77
2022/11/10 00:49:14;;;;;;;0.60;0.60;;;7.60;99.90;;;;;;5119430;28;20666;-77
2022/11/10 00:51:41;;;;;;;0.60;0.60;;;7.60;99.90;;;;;;5099833;28;20762;-76
2022/11/10 00:54:07;;;;;;;0.77;0.77;;;7.70;99.90;;;;;;5100114;28;20227;-77
2022/11/10 00:56:33;;;;;;;0.60;0.60;;;7.70;99.90;;;;;;5100618;28;20220;-76
2022/11/10 00:59:00;;;;;;;2.58;1.63;;;7.70;99.90;;;;;;5119550;28;20255;-77
2022/11/10 01:01:29;;;;;;;1.15;1.08;;;7.70;99.90;;;;;;5099862;28;20192;-77
2022/11/10 01:03:58;;;;;;;0.60;0.60;;;7.70;99.90;;;;;;5100367;28;20695;-77
2022/11/10 01:06:23;;;;;;;0.60;0.60;;;7.70;99.90;;;;;;5117770;28;20291;-77
2022/11/10 01:08:49;;;;;;;0.70;0.70;;;7.70;99.90;;;;;;5099816;28;20244;-77
2022/11/10 01:11:17;;;;;;;0.52;0.52;;;7.70;99.90;;;;;;5119026;28;20192;-76
2022/11/10 01:13:44;;;;;;;1.10;1.10;;;7.70;99.90;;;;;;5117659;28;20581;-77
2022/11/10 01:16:18;;;;;;;0.60;0.60;;;7.70;99.90;;;;;;5083112;28;20199;-77
2022/11/10 01:18:49;;;;;;;0.60;0.60;;;7.70;99.90;;;;;;5101364;28;20286;-77
2022/11/10 01:21:18;;;;;;;0.52;0.52;;;7.70;99.90;;;;;;5118533;28;20195;-77
2022/11/10 01:23:44;;;;;;;0.60;0.60;;;7.80;99.90;;;;;;5099748;28;20219;-78
2022/11/10 01:26:15;;;;;;;0.50;0.50;;;7.80;99.90;;;;;;5100414;28;20195;-77
2022/11/10 01:28:43;;;;;;;0.55;0.55;;;7.70;99.90;;;;;;5099806;28;20195;-77
2022/11/10 01:31:13;;;;;;;0.45;0.45;;;7.80;99.90;;;;;;5118008;28;20596;-77
2022/11/10 01:33:41;;;;;;;0.60;0.60;;;7.80;99.90;;;;;;5118515;28;20203;-77
2022/11/10 01:36:09;;;;;;;0.50;0.50;;;7.90;99.90;;;;;;5118410;28;20279;-77
2022/11/10 01:38:37;;;;;;;2.60;1.60;;;7.90;99.90;;;;;;5083129;28;20210;-76
2022/11/10 01:41:07;;;;;;;0.60;0.60;;;8.00;99.90;;;;;;5100389;28;20192;-76
2022/11/10 01:43:33;;;;;;;0.70;0.70;;;8.00;99.90;;;;;;5100046;28;20199;-77
2022/11/10 01:46:11;;;;;;;0.60;0.60;;;8.00;99.90;;;;;;5119030;28;20259;-76
2022/11/10 01:48:48;;;;;;;0.60;0.60;;;8.00;99.90;;;;;;5100529;28;20361;-77
2022/11/10 01:51:42;;;;;;;0.57;0.57;;;8.00;99.90;;;;;;5103285;28;20298;-78
2022/11/10 01:54:36;;;;;;;0.50;0.50;;;8.00;99.90;;;;;;5100876;28;20223;-78
2022/11/10 01:57:06;;;;;;;0.85;0.85;;;8.00;99.90;;;;;;5119275;28;20211;-77
2022/11/10 01:59:41;;;;;;;0.60;0.60;;;8.00;99.90;;;;;;5101714;28;20628;-76
2022/11/10 02:02:26;;;;;;;0.60;0.60;;;8.00;99.90;;;;;;5085601;28;20665;-76
2022/11/10 02:04:52;;;;;;;0.50;0.50;;;8.00;99.90;;;;;;5100927;28;20588;-76
2022/11/10 02:07:19;;;;;;;0.50;0.50;;;8.00;99.90;;;;;;5100498;28;20279;-76
2022/11/10 02:09:48;;;;;;;0.50;0.50;;;8.00;99.90;;;;;;5100576;28;20246;-76
2022/11/10 02:12:14;;;;;;;0.55;0.55;;;8.00;99.90;;;;;;5101220;28;20210;-77
2022/11/10 02:14:41;;;;;;;0.50;0.50;;;8.00;99.90;;;;;;5102755;28;20674;-77
2022/11/10 02:17:08;;;;;;;0.50;0.50;;;7.90;99.90;;;;;;5102611;28;20206;-76
2022/11/10 02:19:43;;;;;;;0.60;0.60;;;7.90;99.90;;;;;;5103094;28;20211;-77
2022/11/10 02:22:09;;;;;;;0.60;0.60;;;7.90;99.90;;;;;;5104281;28;20286;-78
2022/11/10 02:24:35;;;;;;;0.70;0.70;;;7.90;99.90;;;;;;5101454;28;20196;-77
2022/11/10 02:27:01;;;;;;;0.60;0.60;;;7.90;99.90;;;;;;5101254;28;20669;-78
2022/11/10 02:29:28;;;;;;;0.70;0.70;;;7.90;99.90;;;;;;5118811;28;20198;-79
2022/11/10 02:31:55;;;;;;;0.60;0.60;;;7.90;99.90;;;;;;5083847;28;20564;-79
2022/11/10 02:34:21;;;;;;;5.80;2.25;;;7.80;99.90;;;;;;5118292;28;20239;-79
2022/11/10 02:36:47;;;;;;;0.60;0.60;;;7.80;99.90;;;;;;5118421;28;20199;-79
2022/11/10 02:39:13;;;;;;;0.57;0.57;;;7.80;99.90;;;;;;5118756;28;20196;-79
2022/11/10 02:41:39;;;;;;;0.60;0.60;;;7.80;99.90;;;;;;5099102;28;20249;-78
2022/11/10 02:44:06;;;;;;;0.70;0.70;;;7.70;99.90;;;;;;5099080;28;20206;-79
2022/11/10 02:46:32;;;;;;;0.60;0.60;;;7.70;99.90;;;;;;5098484;28;20203;-78
2022/11/10 02:48:57;;;;;;;0.60;0.60;;;7.60;99.90;;;;;;5099533;28;20206;-78
2022/11/10 02:51:25;;;;;;;0.60;0.60;;;7.50;99.90;;;;;;5098369;28;20191;-78
2022/11/10 02:53:53;;;;;;;0.68;0.68;;;7.50;99.90;;;;;;5117180;28;20580;-78
2022/11/10 02:56:19;;;;;;;0.60;0.60;;;7.50;99.90;;;;;;5094712;28;20271;-78
2022/11/10 02:58:46;;;;;;;0.60;0.60;;;7.50;99.90;;;;;;5075928;28;20209;-78
2022/11/10 03:01:13;;;;;;;0.60;0.60;;;7.50;99.90;;;;;;5070547;28;20601;-77
2022/11/10 03:03:39;;;;;;;0.65;0.65;;;7.50;99.90;;;;;;5098415;28;20287;-77
2022/11/10 03:06:06;;;;;;;0.52;0.52;;;7.60;99.90;;;;;;5097893;28;20652;-78
2022/11/10 03:08:34;;;;;;;0.60;0.60;;;7.60;99.90;;;;;;5098080;28;20215;-77
2022/11/10 03:10:59;;;;;;;2.30;1.60;;;7.70;99.90;;;;;;5097457;28;20203;-77
2022/11/10 03:13:25;;;;;;;0.70;0.70;;;7.80;99.90;;;;;;5115005;28;20344;-77
2022/11/10 03:15:51;;;;;;;0.63;0.63;;;7.80;99.90;;;;;;5096659;28;20685;-78
2022/11/10 03:18:22;;;;;;;0.60;0.60;;;7.80;99.90;;;;;;5097594;28;20199;-78
2022/11/10 03:20:49;;;;;;;0.60;0.60;;;7.80;99.90;;;;;;5097769;28;20277;-78
2022/11/10 03:23:19;;;;;;;1.75;1.35;;;7.80;99.90;;;;;;5116347;28;20222;-78
2022/11/10 03:25:45;;;;;;;0.50;0.50;;;7.80;99.90;;;;;;5078360;28;20662;-78
2022/11/10 03:28:17;;;;;;;2.67;1.33;;;7.80;99.90;;;;;;5097770;28;20191;-77
2022/11/10 03:30:43;;;;;;;0.50;0.50;;;7.80;99.90;;;;;;5097997;28;20214;-78
2022/11/10 03:33:08;;;;;;;0.50;0.50;;;7.80;99.90;;;;;;5097336;28;20602;-76
2022/11/10 03:35:35;;;;;;;0.80;0.80;;;7.80;99.90;;;;;;5096367;28;20746;-77
2022/11/10 03:38:01;;;;;;;0.50;0.50;;;7.70;99.90;;;;;;5097116;28;20195;-78
2022/11/10 03:40:27;;;;;;;0.50;0.50;;;7.60;99.90;;;;;;5097315;28;20662;-78
2022/11/10 03:42:53;;;;;;;1.35;1.15;;;7.50;99.90;;;;;;5096865;28;20196;-77
2022/11/10 03:45:20;;;;;;;0.50;0.50;;;7.50;99.90;;;;;;5096651;28;20202;-77
2022/11/10 03:47:48;;;;;;;0.57;0.57;;;7.50;99.90;;;;;;5115806;28;20202;-77
2022/11/10 03:50:15;;;;;;;0.50;0.50;;;7.40;99.90;;;;;;5115700;28;20245;-77
2022/11/10 03:52:45;;;;;;;0.60;0.60;;;7.40;99.90;;;;;;5096334;28;20240;-77
2022/11/10 03:55:13;;;;;;;0.60;0.60;;;7.30;99.90;;;;;;5097364;28;20200;-77
2022/11/10 03:57:39;;;;;;;0.30;0.30;;;7.10;99.90;;;;;;5097187;28;20195;-77
2022/11/10 04:00:06;;;;;;;0.60;0.60;;;7.00;99.90;;;;;;5097178;28;20241;-77
2022/11/10 04:02:33;;;;;;;0.47;0.47;;;7.00;99.90;;;;;;5115072;28;20195;-76
2022/11/10 04:10:30;;;;;;;0.50;0.50;;;6.90;99.90;;;;;;5116226;28;20202;-78
2022/11/10 04:15:41;;;;;;;0.60;0.60;;;6.80;99.90;;;;;;5116234;28;20193;-78
2022/11/10 04:18:20;;;;;;;0.60;0.60;;;6.70;99.90;;;;;;5097071;28;20223;-77
2022/11/10 04:20:48;;;;;;;0.70;0.70;;;6.60;99.90;;;;;;5097371;28;20230;-77
2022/11/10 04:23:26;;;;;;;0.93;0.93;;;6.40;99.90;;;;;;5063173;28;20549;-77
2022/11/10 04:28:50;;;;;;;0.52;0.52;;;6.20;99.90;;;;;;5100495;28;20201;-77
2022/11/10 04:31:17;;;;;;;0.57;0.57;;;6.00;99.90;;;;;;5080456;28;20762;-77
2022/11/10 04:33:44;;;;;;;0.60;0.60;;;6.00;99.90;;;;;;5096508;28;20289;-76
2022/11/10 04:36:13;;;;;;;0.40;0.40;;;5.90;99.90;;;;;;5096570;28;20187;-77
2022/11/10 04:38:42;;;;;;;0.60;0.60;;;5.80;99.90;;;;;;5097374;28;20196;-77
2022/11/10 04:41:11;;;;;;;0.68;0.68;;;5.70;99.90;;;;;;5115005;28;20224;-77
2022/11/10 04:43:38;;;;;;;0.70;0.70;;;5.60;99.90;;;;;;5096110;28;20566;-77
2022/11/10 04:46:15;;;;;;;0.60;0.60;;;5.50;99.90;;;;;;5114948;28;20199;-77
2022/11/10 04:48:41;;;;;;;0.70;0.70;;;5.40;99.90;;;;;;5096322;28;20207;-77
2022/11/10 04:51:08;;;;;;;0.55;0.55;;;5.30;99.90;;;;;;5096293;28;20210;-77
2022/11/10 04:53:34;;;;;;;0.63;0.63;;;5.30;99.90;;;;;;5094882;28;20233;-75
2022/11/10 04:56:01;;;;;;;0.60;0.60;;;5.20;99.90;;;;;;5095789;28;20282;-76
2022/11/10 04:58:26;;;;;;;0.50;0.50;;;5.20;99.90;;;;;;5095780;28;20194;-76
2022/11/10 05:00:53;;;;;;;1.13;1.13;;;5.10;99.90;;;;;;5113624;28;20200;-76
2022/11/10 05:03:19;;;;;;;0.60;0.60;;;5.10;99.90;;;;;;5095357;28;20195;-76
2022/11/10 05:05:45;;;;;;;0.60;0.60;;;5.10;99.90;;;;;;5095179;28;20566;-75
2022/11/10 05:08:12;;;;;;;0.70;0.70;;;5.00;99.90;;;;;;5114614;28;20203;-76
2022/11/10 05:10:41;;;;;;;0.50;0.50;;;5.00;99.90;;;;;;5095599;28;20569;-76
2022/11/10 05:13:07;;;;;;;0.50;0.50;;;4.90;99.90;;;;;;5095998;28;20678;-76
2022/11/10 05:15:33;;;;;;;0.50;0.50;;;4.90;99.90;;;;;;5095088;28;20253;-76
2022/11/10 05:17:59;;;;;;;0.60;0.60;;;4.80;99.90;;;;;;5101028;28;20215;-76
2022/11/10 05:20:29;;;;;;;0.60;0.60;;;4.80;99.90;;;;;;5112761;28;20666;-76
2022/11/10 05:25:44;;;;;;;0.60;0.60;;;4.70;99.90;;;;;;5118230;28;20680;-77
2022/11/10 05:28:11;;;;;;;0.70;0.70;;;4.70;99.90;;;;;;5099541;28;20199;-76
2022/11/10 05:30:38;;;;;;;0.75;0.75;;;4.70;99.90;;;;;;5099489;28;20202;-75
2022/11/10 05:33:04;;;;;;;0.52;0.52;;;4.60;99.90;;;;;;5098705;28;20207;-76
2022/11/10 05:35:34;;;;;;;0.50;0.50;;;4.60;99.90;;;;;;5116825;28;20539;-76
2022/11/10 05:38:00;;;;;;;0.68;0.68;;;4.60;99.90;;;;;;5099081;28;20595;-76
2022/11/10 05:40:27;;;;;;;0.60;0.60;;;4.60;99.90;;;;;;5116394;28;20244;-76
2022/11/10 05:42:56;;;;;;;0.57;0.57;;;4.60;99.90;;;;;;5065311;28;20248;-77
2022/11/10 05:45:25;;;;;;;0.60;0.60;;;4.60;99.90;;;;;;5098512;28;20195;-76
2022/11/10 05:47:56;;;;;;;0.60;0.60;;;4.60;99.90;;;;;;5098633;28;20202;-77
2022/11/10 05:50:24;;;;;;;0.60;0.60;;;4.60;99.90;;;;;;5097967;28;20329;-76
2022/11/10 05:52:53;;;;;;;0.50;0.50;;;4.50;99.90;;;;;;5116494;28;20686;-76
2022/11/10 05:55:22;;;;;;;0.50;0.50;;;4.50;99.90;;;;;;5098434;28;20203;-75
2022/11/10 05:57:50;;;;;;;0.60;0.60;;;4.50;99.90;;;;;;5098325;28;20674;-76
2022/11/10 06:00:21;;;;;;;0.50;0.50;;;4.60;99.90;;;;;;5098345;28;20684;-76
2022/11/10 06:03:16;;;;;;;0.40;0.40;;;4.70;99.90;;;;;;5097988;28;20670;-77
2022/11/10 06:05:44;;;;;;;0.60;0.60;;;4.70;99.90;;;;;;5097839;28;20204;-77
2022/11/10 06:08:10;;;;;;;0.60;0.60;;;4.60;99.90;;;;;;5098048;28;20223;-76
2022/11/10 06:10:40;;;;;;;0.50;0.50;;;4.50;99.90;;;;;;5098324;28;20282;-76
2022/11/10 06:13:09;;;;;;;0.50;0.50;;;4.50;99.90;;;;;;5116537;28;20204;-76
2022/11/10 06:15:39;;;;;;;0.70;0.70;;;4.40;99.90;;;;;;5116292;28;20236;-76
2022/11/10 06:18:05;;;;;;;0.60;0.60;;;4.40;99.90;;;;;;5116120;28;20252;-76
2022/11/10 06:20:35;;;;;;;0.70;0.70;;;4.30;99.90;;;;;;5116090;28;20705;-76
2022/11/10 06:23:06;;;;;;;0.60;0.60;;;4.30;99.90;;;;;;5116576;28;20596;-76
2022/11/10 06:25:34;;;;;;;0.50;0.50;;;4.20;99.90;;;;;;5092798;28;20290;-75
2022/11/10 06:28:00;;;;;;;0.70;0.70;;;4.10;99.90;;;;;;5097580;28;20200;-75
2022/11/10 06:30:27;;;;;;;0.70;0.70;;;4.10;99.90;;;;;;5097103;28;20276;-76
2022/11/10 06:32:53;;;;;;;0.60;0.60;;;4.10;99.90;;;;;;5115503;28;20286;-75
2022/11/10 06:35:20;;;;;;;0.50;0.50;;;4.10;99.90;;;;;;5115164;28;20211;-74
2022/11/10 06:37:59;;;;;;;0.57;0.57;;;4.10;99.90;;;;;;5097115;28;20187;-75
2022/11/10 06:40:25;;;;;;;0.60;0.60;;;4.10;99.90;;;;;;5088846;28;20602;-74
2022/11/10 06:42:57;;;;;;;0.70;0.70;;;4.00;99.90;;;;;;5115662;28;20678;-75
2022/11/10 06:45:24;;;;;;;0.60;0.60;;;4.00;99.90;;;;;;5114331;28;20708;-75
2022/11/10 06:48:10;;;;;;;0.70;0.70;;;4.00;99.90;;;;;;5115997;28;20199;-75
2022/11/10 06:50:36;;;;;;;0.60;0.60;;;4.00;99.90;;;;;;5113763;28;20233;-76
2022/11/10 06:53:02;;;;;;;0.50;0.50;;;4.00;99.90;;;;;;5120965;27;20250;-75
2022/11/10 06:55:28;;;;;;;0.55;0.55;;;4.00;99.90;;;;;;5117086;27;20195;-75
2022/11/10 06:57:56;;;;;;;0.50;0.50;;;3.90;99.90;;;;;;5135746;27;20274;-75
2022/11/10 07:00:23;;;;;;;0.50;0.50;;;3.90;99.90;;;;;;5117346;27;20193;-76
2022/11/10 07:03:00;;;;;;;0.60;0.60;;;3.90;99.90;;;;;;5116990;27;20202;-75
2022/11/10 07:05:25;;;;;;;0.57;0.57;;;3.90;99.90;;;;;;5116961;27;20201;-76
2022/11/10 07:07:51;;;;;;;0.60;0.60;;;3.90;99.90;;;;;;5135607;27;20265;-75
2022/11/10 07:10:17;;;;;;;0.60;0.60;;;3.90;99.90;;;;;;5135592;27;20193;-75
2022/11/10 07:12:44;;;;;;;0.60;0.60;;;3.80;99.90;;;;;;5117097;27;20229;-75
2022/11/10 07:15:10;;;;;;;0.60;0.60;;;3.90;99.90;;;;;;5135531;27;20197;-75
2022/11/10 07:17:42;;;;;;;0.50;0.50;;;3.90;99.90;;;;;;5135325;27;20566;-75
2022/11/10 07:20:11;;;;;;;0.50;0.50;;;3.90;99.90;;;;;;5135078;27;20203;-76
2022/11/10 07:22:37;;;;;;;0.52;0.52;;;3.90;99.90;;;;;;5116490;27;20202;-75
2022/11/10 07:25:03;;;;;;;0.57;0.57;;;3.90;99.90;;;;;;5117283;27;20194;-75
2022/11/10 07:27:31;;;;;;;0.75;0.75;;;4.00;99.90;;;;;;5115941;27;20226;-76
2022/11/10 07:29:56;;;;;;;0.60;0.60;;;4.00;99.90;;;;;;5134581;27;20704;-75
2022/11/10 07:32:22;;;;;;;0.52;0.52;;;4.00;99.90;;;;;;5116542;27;20327;-75
2022/11/10 07:34:48;;;;;;;0.50;0.50;;;4.00;99.90;;;;;;5116613;27;20195;-75
2022/11/10 07:37:13;;;;;;;0.60;0.60;;;4.00;99.90;;;;;;5098745;28;20204;-75
2022/11/10 07:39:39;;;;;;;0.45;0.45;;;4.00;99.90;;;;;;5096122;28;20209;-76
2022/11/10 07:42:05;;;;;;;0.60;0.60;;;4.00;99.90;;;;;;5096502;28;20195;-75
2022/11/10 07:44:31;;;;;;;0.60;0.60;;;4.10;99.90;;;;;;5114135;28;20244;-75
2022/11/10 07:46:56;;;;;;;0.52;0.52;;;4.20;99.90;;;;;;5095835;28;20203;-75
2022/11/10 07:49:25;;;;;;;0.50;0.50;;;4.40;99.90;;;;;;5114381;28;20206;-75
2022/11/10 07:51:50;;;;;;;0.70;0.70;;;4.50;99.90;;;;;;5096120;28;20286;-75
2022/11/10 07:54:16;;;;;;;0.60;0.60;;;4.70;99.90;;;;;;5114635;28;20310;-76
2022/11/10 07:56:42;;;;;;;0.60;0.60;;;4.90;99.90;;;;;;5096126;28;20653;-76
2022/11/10 07:59:10;;;;;;;0.60;0.60;;;5.20;99.90;;;;;;5096730;28;20600;-76
2022/11/10 08:01:36;;;;;;;1.85;1.20;;;5.40;99.90;;;;;;5114318;28;20603;-76
2022/11/10 08:04:08;;;;;;;0.63;0.63;;;5.70;99.90;;;;;;5096426;28;20195;-75
2022/11/10 08:06:35;;;;;;;0.70;0.70;;;5.90;99.90;;;;;;5095577;28;20195;-76
2022/11/10 08:09:01;;;;;;;0.60;0.60;;;6.10;99.90;;;;;;5079517;28;20560;-76
2022/11/10 08:11:27;;;;;;;0.70;0.70;;;6.10;99.90;;;;;;5079305;28;20199;-76
2022/11/10 08:13:52;;;;;;;0.60;0.60;;;6.10;99.90;;;;;;5096154;28;20264;-75
2022/11/10 08:16:18;;;;;;;0.60;0.60;;;6.20;99.90;;;;;;5114461;28;20187;-76
2022/11/10 08:18:47;;;;;;;0.50;0.50;;;6.30;99.90;;;;;;5096075;28;20712;-76
2022/11/10 08:21:13;;;;;;;0.70;0.70;;;6.40;99.90;;;;;;5113444;28;20589;-76
2022/11/10 08:23:39;;;;;;;1.85;1.38;;;6.50;99.90;;;;;;5095669;28;20364;-76
2022/11/10 08:26:07;;;;;;;0.50;0.50;;;6.50;99.90;;;;;;5095166;28;20203;-77
2022/11/10 08:28:36;;;;;;;0.60;0.60;;;6.50;99.90;;;;;;5114322;28;20195;-76
2022/11/10 08:31:04;;;;;;;0.60;0.60;;;6.60;99.90;;;;;;5095515;28;20223;-74
2022/11/10 08:33:33;;;;;;;0.50;0.50;;;6.80;99.90;;;;;;5113827;28;20650;-76
2022/11/10 08:36:03;;;;;;;0.55;0.55;;;6.90;99.90;;;;;;5096157;28;20598;-76
2022/11/10 08:38:29;;;;;;;0.60;0.60;;;7.00;99.90;;;;;;5114055;28;20537;-76
2022/11/10 08:40:56;;;;;;;0.50;0.50;;;7.00;99.90;;;;;;5114030;28;20214;-76
2022/11/10 08:43:30;;;;;;;0.60;0.60;;;7.10;99.90;;;;;;5095507;28;20195;-76
2022/11/10 08:45:57;;;;;;;3.22;1.67;;;7.10;99.90;;;;;;5095992;28;20282;-76
2022/11/10 08:48:25;;;;;;;0.55;0.55;;;7.20;99.90;;;;;;5114574;28;20216;-76
2022/11/10 08:50:51;;;;;;;0.50;0.50;;;7.30;99.90;;;;;;5113664;28;20196;-74
2022/11/10 08:53:22;;;;;;;0.60;0.60;;;7.30;99.90;;;;;;5079224;28;20607;-75
2022/11/10 08:55:49;;;;;;;0.57;0.57;;;7.30;99.90;;;;;;5095939;28;20279;-75
2022/11/10 08:58:20;;;;;;;0.60;0.60;;;7.30;99.90;;;;;;5098244;28;20195;-76
2022/11/10 09:00:46;;;;;;;0.60;0.60;;;7.40;99.90;;;;;;5099562;28;20192;-75
2022/11/10 09:03:14;;;;;;;0.73;0.73;;;7.40;99.90;;;;;;5098562;28;20211;-75
2022/11/10 09:05:42;;;;;;;0.30;0.30;;;7.50;99.90;;;;;;5099334;28;20206;-76
2022/11/10 09:08:10;;;;;;;0.50;0.50;;;7.60;99.90;;;;;;5099458;28;20199;-76
2022/11/10 09:10:44;;;;;;;0.60;0.60;;;7.80;99.90;;;;;;5099241;28;20230;-75
2022/11/10 09:13:12;;;;;;;4.32;2.05;;;7.80;99.90;;;;;;5099493;28;20739;-76
2022/11/10 09:15:38;;;;;;;0.60;0.60;;;8.00;99.90;;;;;;5100335;28;20183;-76
2022/11/10 09:18:07;;;;;;;0.60;0.60;;;8.00;99.90;;;;;;5099394;28;20198;-76
2022/11/10 09:20:35;;;;;;;0.60;0.60;;;8.10;99.90;;;;;;5098805;28;20196;-77
2022/11/10 09:23:15;;;;;;;0.60;0.60;;;8.10;99.90;;;;;;5097377;28;20287;-76
2022/11/10 09:25:47;;;;;;;0.50;0.50;;;8.20;99.90;;;;;;5079028;28;20283;-77
2022/11/10 09:28:14;;;;;;;0.60;0.60;;;8.30;99.90;;;;;;5084408;28;20757;-77
2022/11/10 09:30:45;;;;;;;0.60;0.60;;;8.40;99.90;;;;;;5099087;28;20252;-76
2022/11/10 09:33:14;;;;;;;0.63;0.63;;;8.50;99.90;;;;;;5099301;28;20210;-76
2022/11/10 09:35:41;;;;;;;1.00;1.00;;;8.60;99.90;;;;;;5098533;28;20415;-76
2022/11/10 09:38:07;;;;;;;0.60;0.60;;;8.70;99.90;;;;;;5082137;28;20219;-77
2022/11/10 09:41:01;;;;;;;0.50;0.50;;;8.70;99.90;;;;;;5099109;28;20654;-77
2022/11/10 09:43:41;;;;;;;0.50;0.50;;;8.90;99.90;;;;;;5098829;28;20222;-76
2022/11/10 09:46:48;;;;;;;0.50;0.50;;;9.00;99.90;;;;;;5099140;28;20195;-77
2022/11/10 09:49:38;;;;;;;0.60;0.60;;;9.20;99.90;;;;;;5100093;28;20203;-77
2022/11/10 09:52:05;;;;;;;0.60;0.60;;;9.40;99.90;;;;;;5117484;28;20195;-78
2022/11/10 09:54:45;;;;;;;2.05;1.95;;;9.60;99.90;;;;;;5099743;28;20231;-76
2022/11/10 09:57:18;;;;;;;0.50;0.50;;;9.80;99.90;;;;;;5117669;28;20583;-76
2022/11/10 09:59:45;;;;;;;1.13;1.00;;;9.80;99.90;;;;;;5115934;28;20214;-77
2022/11/10 10:02:14;;;;;;;0.80;0.80;;;9.90;99.90;;;;;;5100769;28;20555;-77
2022/11/10 10:05:36;;;;;;;0.60;0.60;;;9.80;99.90;;;;;;5118368;28;20266;-78
2022/11/10 10:08:43;;;;;;;0.50;0.50;;;9.90;99.90;;;;;;5114172;28;20208;-76
2022/11/10 10:11:40;;;;;;;0.50;0.50;;;10.00;99.90;;;;;;5121320;28;20210;-79
2022/11/10 10:14:37;;;;;;;0.60;0.60;;;10.00;99.90;;;;;;5121217;28;20257;-76
2022/11/10 10:17:36;;;;;;;0.68;0.68;;;10.10;99.90;;;;;;5121381;28;20200;-76
2022/11/10 10:20:18;;;;;;;0.85;0.85;;;10.30;99.90;;;;;;5101215;28;20320;-76
2022/11/10 10:22:50;;;;;;;0.50;0.50;;;10.30;99.90;;;;;;5123717;28;20192;-77
2022/11/10 10:25:31;;;;;;;0.73;0.73;;;10.20;99.90;;;;;;5123500;28;20684;-76
2022/11/10 10:28:21;;;;;;;0.88;0.88;;;10.20;99.90;;;;;;5106154;28;20580;-76
2022/11/10 10:30:47;;;;;;;1.40;1.00;;;10.20;99.90;;;;;;5122415;28;20192;-75
2022/11/10 10:33:31;;;;;;;1.65;1.00;;;10.10;99.90;;;;;;5122611;28;20302;-76
2022/11/10 10:36:04;;;;;;;0.60;0.60;;;10.30;99.90;;;;;;5120424;28;20195;-75
2022/11/10 10:38:39;;;;;;;0.50;0.50;;;10.40;99.90;;;;;;5123138;28;20219;-77
2022/11/10 10:41:28;;;;;;;0.60;0.60;;;10.50;99.90;;;;;;5127392;28;20191;-77
2022/11/10 10:44:00;;;;;;;0.55;0.55;;;10.50;99.90;;;;;;5104031;28;20231;-77
2022/11/10 10:46:28;;;;;;;0.60;0.60;;;10.50;99.90;;;;;;5119930;28;20195;-77
2022/11/10 10:49:18;;;;;;;0.60;0.60;;;10.60;99.90;;;;;;5119806;28;20590;-78
2022/11/10 10:51:44;;;;;;;0.70;0.70;;;10.50;99.90;;;;;;5117929;28;20207;-77
2022/11/10 10:54:30;;;;;;;0.90;0.90;;;10.40;99.90;;;;;;5111195;28;20682;-78
2022/11/10 10:57:29;;;;;;;0.60;0.60;;;10.40;99.90;;;;;;5117205;28;20607;-76
2022/11/10 11:00:22;;;;;;;0.60;0.60;;;10.40;99.90;;;;;;5115867;28;20195;-77
2022/11/10 11:03:41;;;;;;;0.95;0.95;;;10.40;99.90;;;;;;5098650;28;20567;-77
2022/11/10 11:06:21;;;;;;;0.60;0.60;;;10.30;99.90;;;;;;5094087;28;20207;-78
2022/11/10 11:08:53;;;;;;;0.63;0.63;;;10.20;99.90;;;;;;5116015;28;20199;-78
2022/11/10 11:11:27;;;;;;;1.10;0.98;;;10.10;99.90;;;;;;5117170;28;20191;-78
2022/11/10 11:14:12;;;;;;;0.60;0.60;;;10.10;99.90;;;;;;5114851;28;20223;-79
2022/11/10 11:16:51;;;;;;;0.73;0.73;;;10.10;99.90;;;;;;5098794;28;20253;-78
2022/11/10 11:19:18;;;;;;;0.55;0.55;;;10.10;99.90;;;;;;5114943;28;20199;-78
2022/11/10 11:22:17;;;;;;;0.50;0.50;;;10.10;99.90;;;;;;5093746;28;20219;-78
2022/11/10 11:25:28;;;;;;;0.55;0.55;;;10.10;99.90;;;;;;5093857;28;20207;-78
2022/11/10 11:28:30;;;;;;;0.50;0.50;;;10.00;99.90;;;;;;5062574;28;20208;-77
2022/11/10 11:31:29;;;;;;;0.50;0.50;;;10.00;99.90;;;;;;5095227;28;20192;-78
2022/11/10 11:34:21;;;;;;;0.60;0.60;;;10.10;99.90;;;;;;5092654;28;20273;-77
2022/11/10 11:37:08;;;;;;;3.05;1.65;;;10.10;99.90;;;;;;5095187;28;20658;-78
2022/11/10 11:40:04;;;;;;;0.50;0.50;;;10.10;99.90;;;;;;5093320;28;20206;-78
2022/11/10 11:42:38;;;;;;;3.22;0.98;;;10.10;99.90;;;;;;5094682;28;20219;-77
2022/11/10 11:45:35;;;;;;;0.50;0.50;;;10.00;99.90;;;;;;5094700;28;20188;-77
2022/11/10 11:48:45;;;;;;;1.77;1.52;;;10.00;99.90;;;;;;5094391;28;20221;-78
2022/11/10 11:51:49;;;;;;;1.67;1.08;;;10.00;99.90;;;;;;5085583;28;20204;-77
2022/11/10 11:54:53;;;;;;;0.60;0.60;;;10.00;99.90;;;;;;5093485;28;20223;-77
2022/11/10 11:57:34;;;;;;;0.60;0.60;;;10.10;99.90;;;;;;5094163;28;20701;-78
2022/11/10 12:00:14;;;;;;;0.60;0.60;;;10.30;99.90;;;;;;5095398;28;20211;-77
2022/11/10 12:03:01;;;;;;;0.60;0.60;;;10.40;99.90;;;;;;5095181;28;20188;-78
2022/11/10 12:05:45;;;;;;;0.60;0.60;;;10.40;99.90;;;;;;5094118;28;20199;-78
2022/11/10 12:08:45;;;;;;;0.60;0.60;;;10.50;99.90;;;;;;5077240;28;20291;-77
2022/11/10 12:11:35;;;;;;;0.50;0.50;;;10.50;99.90;;;;;;5128574;27;20194;-77
2022/11/10 12:14:28;;;;;;;0.60;0.60;;;10.50;99.90;;;;;;5118177;27;20215;-78
2022/11/10 12:17:39;;;;;;;0.60;0.60;;;10.50;99.90;;;;;;5130765;27;20196;-78
2022/11/10 12:20:46;;;;;;;0.60;0.60;;;10.50;99.90;;;;;;5116185;28;20195;-78
2022/11/10 12:23:33;;;;;;;1.08;0.98;;;10.40;99.90;;;;;;5115559;28;20196;-77
2022/11/10 12:26:27;;;;;;;0.60;0.60;;;10.40;99.90;;;;;;5116162;28;20198;-79
2022/11/10 12:29:17;;;;;;;0.60;0.60;;;10.40;99.90;;;;;;5116308;28;20544;-78
2022/11/10 12:31:48;;;;;;;0.60;0.60;;;10.40;99.90;;;;;;5118662;28;20187;-79
2022/11/10 12:34:49;;;;;;;0.55;0.55;;;10.50;99.90;;;;;;5120492;28;20214;-78
2022/11/10 12:37:39;;;;;;;0.60;0.60;;;10.50;99.90;;;;;;5121162;28;20193;-78
2022/11/10 12:40:19;;;;;;;0.70;0.70;;;10.40;99.90;;;;;;5120562;28;20555;-78
2022/11/10 12:42:52;;;;;;;0.50;0.50;;;10.40;99.90;;;;;;5119281;28;20195;-79
2022/11/10 12:45:41;;;;;;;0.50;0.50;;;10.30;99.90;;;;;;5119202;28;20221;-78
2022/11/10 12:48:14;;;;;;;0.70;0.68;;;10.30;99.90;;;;;;5111502;28;20195;-78
2022/11/10 12:50:47;;;;;;;3.10;0.93;;;10.30;99.90;;;;;;5100589;28;20721;-78
2022/11/10 12:53:23;;;;;;;0.70;0.70;;;10.30;99.90;;;;;;5100545;28;20230;-78
2022/11/10 12:56:17;;;;;;;0.40;0.40;;;10.20;99.90;;;;;;5100458;28;20216;-78
2022/11/10 12:58:43;;;;;;;1.58;1.00;;;10.20;99.90;;;;;;5090476;28;20242;-78
2022/11/10 13:01:18;;;;;;;0.70;0.70;;;10.20;99.90;;;;;;5100613;28;20195;-78
2022/11/10 13:04:02;;;;;;;1.35;1.25;;;10.20;99.90;;;;;;5100247;28;20213;-78
2022/11/10 13:06:35;;;;;;;0.50;0.50;;;10.20;99.90;;;;;;5091622;28;20202;-77
2022/11/10 13:09:03;;;;;;;0.60;0.60;;;10.10;99.90;;;;;;5063846;28;20227;-78
2022/11/10 13:11:34;;;;;;;0.50;0.50;;;10.10;99.90;;;;;;5079547;28;20681;-77
2022/11/10 13:14:18;;;;;;;0.52;0.52;;;10.10;99.90;;;;;;5078617;28;20208;-77
2022/11/10 13:17:04;;;;;;;0.50;0.50;;;10.10;99.90;;;;;;5079806;28;20559;-78
2022/11/10 13:19:32;;;;;;;9.25;1.67;;;10.10;99.90;;;;;;5079255;28;20294;-78
2022/11/10 13:21:59;;;;;;;0.65;0.65;;;10.10;99.90;;;;;;5079122;28;20590;-78
2022/11/10 13:24:47;;;;;;;0.50;0.50;;;10.10;99.90;;;;;;5079247;28;20274;-77
2022/11/10 13:27:51;;;;;;;0.50;0.50;;;10.10;99.90;;;;;;5097731;28;20223;-79
2022/11/10 13:30:52;;;;;;;0.50;0.50;;;10.10;99.90;;;;;;5097763;28;20196;-78
2022/11/10 13:33:35;;;;;;;1.30;1.20;;;10.00;99.90;;;;;;4995782;28;20599;-78
2022/11/10 13:36:04;;;;;;;2.30;1.73;;;10.00;99.90;;;;;;4979627;28;20203;-78
2022/11/10 13:38:33;;;;;;;1.98;1.38;;;9.90;99.90;;;;;;4979472;28;20298;-78
2022/11/10 13:41:21;;;;;;;0.50;0.50;;;9.90;99.90;;;;;;4979405;28;20208;-78
2022/11/10 13:43:56;;;;;;;1.10;1.00;;;9.90;99.90;;;;;;4973227;28;20298;-78